Makantoyka — SV3556 — position and weather

sailwx.info

Track history (hours):
 
Tides and Currents Weather Stations Pressure Air Temp Water Temp Dewpoint Dewpoint Depression Visibility Wind Speed Wind Dir Waves Ship Positions

Makantoyka

Last reported at 2018-Jan-06 23:22 UTC. Time now 2018-Feb-19 12:25 UTC.
Position N 40°09' E 024°03'.
Warning: this ship's position is 43 days out of date.

Length 18 m; draft 1.5 m.

Type: Fishing. MMSI: 237451000.

Date/timePositionNaut miles runAvg speedWind from/ knotsBaromVisibWave heightAir tempDewpointWater temp
2018-Jan-06 23:22N 40°09' E 024°03'3 6.3
2018-Jan-06 22:57N 40°07' E 024°03'3 6.1
2018-Jan-06 22:25N 40°04' E 024°04'3 6.2
2018-Jan-06 21:56N 40°01' E 024°05'3 6.2
2018-Jan-06 21:24N 39°57' E 024°06'3 6.4
2018-Jan-06 20:53N 39°54' E 024°06'17 7.1
2018-Jan-06 18:32N 39°38' E 024°09'1 7.2
2018-Jan-06 18:26N 39°37' E 024°09'16 0.7
2018-Jan-05 21:11N 39°53' E 024°06'8 6.5
2018-Jan-05 20:02N 40°00' E 024°04'  
Track history (hours):
 
Tides and Currents Weather Stations Pressure Air Temp Water Temp Dewpoint Dewpoint Depression Visibility Wind Speed Wind Dir Waves Ship Positions

Makantoyka

Last reported at 2018-Jan-06 23:22 UTC. Time now 2018-Feb-19 12:25 UTC.
Position N 40°09' E 024°03'.
Warning: this ship's position is 43 days out of date.

Length 18 m; draft 1.5 m.

Type: Fishing. MMSI: 237451000.

Date/timePositionNaut miles runAvg speedWind from/ knotsBaromVisibWave heightAir tempDewpointWater temp
2018-Jan-06 23:22N 40°09' E 024°03'3 6.3
2018-Jan-06 22:57N 40°07' E 024°03'3 6.1
2018-Jan-06 22:25N 40°04' E 024°04'3 6.2
2018-Jan-06 21:56N 40°01' E 024°05'3 6.2
2018-Jan-06 21:24N 39°57' E 024°06'3 6.4
2018-Jan-06 20:53N 39°54' E 024°06'17 7.1
2018-Jan-06 18:32N 39°38' E 024°09'1 7.2
2018-Jan-06 18:26N 39°37' E 024°09'16 0.7
2018-Jan-05 21:11N 39°53' E 024°06'8 6.5
2018-Jan-05 20:02N 40°00' E 024°04'  

Dump ship's entire track history